Hakuryoumaru No.15 — JD2439 — position and weather

sailwx.info

Track history (hours):
 
Tides and Currents Weather Stations Pressure Air Temp Water Temp Dewpoint Dewpoint Depression Visibility Wind Speed Wind Dir Waves Ship Positions

Hakuryoumaru No.15

Last reported at 2018-Feb-25 15:30 UTC. Time now 2018-Feb-25 15:54 UTC.
Position N 35°29' E 139°48'.

Length 80 m; draft 4 m.

Type: Tanker. MMSI: 431000243.

Date/timePositionNaut miles runAvg speedWind from/ knotsBaromVisibWave heightAir tempDewpointWater temp
2018-Feb-25 15:30N 35°29' E 139°48'0 0.0
2018-Feb-25 15:00N 35°29' E 139°48'0 0.0
2018-Feb-25 14:30N 35°29' E 139°48'0 0.0
2018-Feb-25 14:00N 35°29' E 139°48'0 0.0
2018-Feb-25 13:30N 35°29' E 139°48'0 0.0
2018-Feb-25 13:00N 35°29' E 139°48'0 0.0
2018-Feb-25 12:30N 35°29' E 139°48'0 0.0
2018-Feb-25 12:00N 35°29' E 139°48'0 0.0
2018-Feb-25 11:30N 35°29' E 139°48'0 0.0
2018-Feb-25 11:00N 35°29' E 139°48'0 0.0
2018-Feb-25 10:30N 35°29' E 139°48'0 0.0
2018-Feb-25 10:00N 35°29' E 139°48'0 0.0
2018-Feb-25 09:30N 35°29' E 139°48'0 0.0
2018-Feb-25 09:00N 35°29' E 139°48'0 0.0
2018-Feb-25 08:30N 35°29' E 139°48'3 5.9
2018-Feb-25 08:00N 35°26' E 139°46'612.4
2018-Feb-25 07:30N 35°20' E 139°44'611.5
2018-Feb-25 07:00N 35°15' E 139°47'612.6
2018-Feb-25 06:30N 35°08' E 139°46'612.9
2018-Feb-25 06:00N 35°04' E 139°41'913.1
2018-Feb-25 05:21N 34°58' E 139°33'713.3
2018-Feb-25 04:51N 34°54' E 139°26'713.0
2018-Feb-25 04:17N 34°49' E 139°19'413.4
2018-Feb-25 03:57N 34°47' E 139°15'713.1
2018-Feb-25 03:24N 34°42' E 139°08'512.4
2018-Feb-25 03:00N 34°39' E 139°03'611.8
2018-Feb-25 02:28N 34°36' E 138°57'611.9
2018-Feb-25 01:57N 34°35' E 138°50'612.3
2018-Feb-25 01:28N 34°34' E 138°42'712.3
2018-Feb-25 00:55N 34°33' E 138°34'612.3
2018-Feb-25 00:28N 34°32' E 138°28'912.9
2018-Feb-24 23:48N 34°32' E 138°17'1713.5
2018-Feb-24 22:30N 34°31' E 137°56'15010.7
2018-Feb-24 08:31N 33°52' E 135°01'113.5
2018-Feb-24 08:26N 33°53' E 135°00'613.5
2018-Feb-24 08:00N 33°57' E 134°56'713.5
2018-Feb-24 07:29N 34°03' E 134°50'613.8
2018-Feb-24 07:00N 34°07' E 134°45'713.7
2018-Feb-24 06:31N 34°13' E 134°40'612.7
2018-Feb-24 06:00N 34°17' E 134°34'613.0
2018-Feb-24 05:30N 34°19' E 134°27'713.1
2018-Feb-24 04:58N 34°22' E 134°19'713.0
2018-Feb-24 04:28N 34°25' E 134°11'7411.0
2018-Feb-23 21:44N 34°01' E 132°46'312.9
2018-Feb-23 21:30N 33°59' E 132°44'713.1
2018-Feb-23 21:00N 33°55' E 132°38'1213.2
2018-Feb-23 20:07N 33°51' E 132°25'413.1
2018-Feb-23 19:48N 33°50' E 132°20'813.4
2018-Feb-23 19:13N 33°49' E 132°11'313.3
2018-Feb-23 18:59N 33°47' E 132°07'612.8
2018-Feb-23 18:30N 33°45' E 132°00'713.2
2018-Feb-23 18:00N 33°45' E 131°53'713.2
2018-Feb-23 17:30N 33°45' E 131°45'713.0
2018-Feb-23 17:00N 33°47' E 131°37'613.0
2018-Feb-23 16:30N 33°48' E 131°29'612.8
2018-Feb-23 16:00N 33°49' E 131°22'612.8
2018-Feb-23 15:30N 33°51' E 131°14'612.6
2018-Feb-23 15:00N 33°54' E 131°08'612.3
2018-Feb-23 14:30N 33°58' E 131°02'510.6
2018-Feb-23 14:01N 33°56' E 130°56'510.1
2018-Feb-23 13:31N 33°57' E 130°50'713.3
2018-Feb-23 13:00N 33°58' E 130°42'713.0
2018-Feb-23 12:29N 33°57' E 130°34'613.1
2018-Feb-23 12:00N 33°56' E 130°27'612.1
2018-Feb-23 11:31N 33°52' E 130°21'713.2
2018-Feb-23 11:00N 33°47' E 130°17'713.3
2018-Feb-23 10:31N 33°42' E 130°11'10 0.3
2018-Feb-21 22:54N 33°43' E 129°59'512.9
2018-Feb-21 22:29N 33°45' E 130°05'612.8
2018-Feb-21 22:00N 33°49' E 130°11'612.5
2018-Feb-21 21:30N 33°52' E 130°17'612.2
2018-Feb-21 21:01N 33°56' E 130°23'612.0
2018-Feb-21 20:30N 33°58' E 130°30'612.0
2018-Feb-21 20:00N 33°58' E 130°38'612.2
2018-Feb-21 19:30N 33°58' E 130°45'611.8
2018-Feb-21 19:00N 33°57' E 130°52'4 8.3
2018-Feb-21 18:31N 33°57' E 130°57'511.0
2018-Feb-21 18:01N 33°57' E 131°03'611.9
2018-Feb-21 17:31N 33°54' E 131°09'612.0
2018-Feb-21 17:01N 33°52' E 131°16'612.4
2018-Feb-21 16:31N 33°50' E 131°23'612.5
2018-Feb-21 15:59N 33°49' E 131°31'612.6
2018-Feb-21 15:30N 33°48' E 131°38'712.7
2018-Feb-21 14:55N 33°46' E 131°47'1612.1
2018-Feb-21 13:38N 33°47' E 132°06'212.2
2018-Feb-21 13:28N 33°48' E 132°08'511.7
2018-Feb-21 13:00N 33°50' E 132°14'1511.8
2018-Feb-21 11:42N 33°53' E 132°32'812.9
2018-Feb-21 11:04N 33°56' E 132°41'113.4
2018-Feb-21 10:59N 33°57' E 132°42'6 0.2
2018-Feb-20 10:39N 34°01' E 132°46'213.3
2018-Feb-20 10:31N 33°60' E 132°45'612.0
2018-Feb-20 10:01N 33°55' E 132°40'1612.5
2018-Feb-20 08:43N 33°50' E 132°21'212.0
2018-Feb-20 08:30N 33°50' E 132°18'1012.3
2018-Feb-20 07:41N 33°47' E 132°07'212.7
2018-Feb-20 07:30N 33°46' E 132°04'812.9
2018-Feb-20 06:51N 33°46' E 131°54'514.2
2018-Feb-20 06:30N 33°48' E 131°49'714.2
2018-Feb-20 06:00N 33°49' E 131°40'714.2
2018-Feb-20 05:30N 33°50' E 131°32'713.9
2018-Feb-20 05:00N 33°51' E 131°24'713.9
2018-Feb-20 04:31N 33°52' E 131°15'713.5
2018-Feb-20 04:00N 33°56' E 131°08'612.7
2018-Feb-20 03:31N 33°58' E 131°01'5 9.4
2018-Feb-20 03:00N 33°56' E 130°56'3 5.9
2018-Feb-20 02:31N 33°56' E 130°53'611.6
2018-Feb-20 02:01N 34°01' E 130°52'713.8
2018-Feb-20 01:30N 34°08' E 130°50'713.9
2018-Feb-20 01:00N 34°15' E 130°49'713.6
2018-Feb-20 00:30N 34°22' E 130°49'  
Track history (hours):
 
Tides and Currents Weather Stations Pressure Air Temp Water Temp Dewpoint Dewpoint Depression Visibility Wind Speed Wind Dir Waves Ship Positions

Hakuryoumaru No.15

Last reported at 2018-Feb-25 15:30 UTC. Time now 2018-Feb-25 15:54 UTC.
Position N 35°29' E 139°48'.

Length 80 m; draft 4 m.

Type: Tanker. MMSI: 431000243.

Date/timePositionNaut miles runAvg speedWind from/ knotsBaromVisibWave heightAir tempDewpointWater temp
2018-Feb-25 15:30N 35°29' E 139°48'0 0.0
2018-Feb-25 15:00N 35°29' E 139°48'0 0.0
2018-Feb-25 14:30N 35°29' E 139°48'0 0.0
2018-Feb-25 14:00N 35°29' E 139°48'0 0.0
2018-Feb-25 13:30N 35°29' E 139°48'0 0.0
2018-Feb-25 13:00N 35°29' E 139°48'0 0.0
2018-Feb-25 12:30N 35°29' E 139°48'0 0.0
2018-Feb-25 12:00N 35°29' E 139°48'0 0.0
2018-Feb-25 11:30N 35°29' E 139°48'0 0.0
2018-Feb-25 11:00N 35°29' E 139°48'0 0.0
2018-Feb-25 10:30N 35°29' E 139°48'0 0.0
2018-Feb-25 10:00N 35°29' E 139°48'0 0.0
2018-Feb-25 09:30N 35°29' E 139°48'0 0.0
2018-Feb-25 09:00N 35°29' E 139°48'0 0.0
2018-Feb-25 08:30N 35°29' E 139°48'3 5.9
2018-Feb-25 08:00N 35°26' E 139°46'612.4
2018-Feb-25 07:30N 35°20' E 139°44'611.5
2018-Feb-25 07:00N 35°15' E 139°47'612.6
2018-Feb-25 06:30N 35°08' E 139°46'612.9
2018-Feb-25 06:00N 35°04' E 139°41'913.1
2018-Feb-25 05:21N 34°58' E 139°33'713.3
2018-Feb-25 04:51N 34°54' E 139°26'713.0
2018-Feb-25 04:17N 34°49' E 139°19'413.4
2018-Feb-25 03:57N 34°47' E 139°15'713.1
2018-Feb-25 03:24N 34°42' E 139°08'512.4
2018-Feb-25 03:00N 34°39' E 139°03'611.8
2018-Feb-25 02:28N 34°36' E 138°57'611.9
2018-Feb-25 01:57N 34°35' E 138°50'612.3
2018-Feb-25 01:28N 34°34' E 138°42'712.3
2018-Feb-25 00:55N 34°33' E 138°34'612.3
2018-Feb-25 00:28N 34°32' E 138°28'912.9
2018-Feb-24 23:48N 34°32' E 138°17'1713.5
2018-Feb-24 22:30N 34°31' E 137°56'15010.7
2018-Feb-24 08:31N 33°52' E 135°01'113.5
2018-Feb-24 08:26N 33°53' E 135°00'613.5
2018-Feb-24 08:00N 33°57' E 134°56'713.5
2018-Feb-24 07:29N 34°03' E 134°50'613.8
2018-Feb-24 07:00N 34°07' E 134°45'713.7
2018-Feb-24 06:31N 34°13' E 134°40'612.7
2018-Feb-24 06:00N 34°17' E 134°34'613.0
2018-Feb-24 05:30N 34°19' E 134°27'713.1
2018-Feb-24 04:58N 34°22' E 134°19'713.0
2018-Feb-24 04:28N 34°25' E 134°11'7411.0
2018-Feb-23 21:44N 34°01' E 132°46'312.9
2018-Feb-23 21:30N 33°59' E 132°44'713.1
2018-Feb-23 21:00N 33°55' E 132°38'1213.2
2018-Feb-23 20:07N 33°51' E 132°25'413.1
2018-Feb-23 19:48N 33°50' E 132°20'813.4
2018-Feb-23 19:13N 33°49' E 132°11'313.3
2018-Feb-23 18:59N 33°47' E 132°07'612.8
2018-Feb-23 18:30N 33°45' E 132°00'713.2
2018-Feb-23 18:00N 33°45' E 131°53'713.2
2018-Feb-23 17:30N 33°45' E 131°45'713.0
2018-Feb-23 17:00N 33°47' E 131°37'613.0
2018-Feb-23 16:30N 33°48' E 131°29'612.8
2018-Feb-23 16:00N 33°49' E 131°22'612.8
2018-Feb-23 15:30N 33°51' E 131°14'612.6
2018-Feb-23 15:00N 33°54' E 131°08'612.3
2018-Feb-23 14:30N 33°58' E 131°02'510.6
2018-Feb-23 14:01N 33°56' E 130°56'510.1
2018-Feb-23 13:31N 33°57' E 130°50'713.3
2018-Feb-23 13:00N 33°58' E 130°42'713.0
2018-Feb-23 12:29N 33°57' E 130°34'613.1
2018-Feb-23 12:00N 33°56' E 130°27'612.1
2018-Feb-23 11:31N 33°52' E 130°21'713.2
2018-Feb-23 11:00N 33°47' E 130°17'713.3
2018-Feb-23 10:31N 33°42' E 130°11'10 0.3
2018-Feb-21 22:54N 33°43' E 129°59'512.9
2018-Feb-21 22:29N 33°45' E 130°05'612.8
2018-Feb-21 22:00N 33°49' E 130°11'612.5
2018-Feb-21 21:30N 33°52' E 130°17'612.2
2018-Feb-21 21:01N 33°56' E 130°23'612.0
2018-Feb-21 20:30N 33°58' E 130°30'612.0
2018-Feb-21 20:00N 33°58' E 130°38'612.2
2018-Feb-21 19:30N 33°58' E 130°45'611.8
2018-Feb-21 19:00N 33°57' E 130°52'4 8.3
2018-Feb-21 18:31N 33°57' E 130°57'511.0
2018-Feb-21 18:01N 33°57' E 131°03'611.9
2018-Feb-21 17:31N 33°54' E 131°09'612.0
2018-Feb-21 17:01N 33°52' E 131°16'612.4
2018-Feb-21 16:31N 33°50' E 131°23'612.5
2018-Feb-21 15:59N 33°49' E 131°31'612.6
2018-Feb-21 15:30N 33°48' E 131°38'712.7
2018-Feb-21 14:55N 33°46' E 131°47'1612.1
2018-Feb-21 13:38N 33°47' E 132°06'212.2
2018-Feb-21 13:28N 33°48' E 132°08'511.7
2018-Feb-21 13:00N 33°50' E 132°14'1511.8
2018-Feb-21 11:42N 33°53' E 132°32'812.9
2018-Feb-21 11:04N 33°56' E 132°41'113.4
2018-Feb-21 10:59N 33°57' E 132°42'6 0.2
2018-Feb-20 10:39N 34°01' E 132°46'213.3
2018-Feb-20 10:31N 33°60' E 132°45'612.0
2018-Feb-20 10:01N 33°55' E 132°40'1612.5
2018-Feb-20 08:43N 33°50' E 132°21'212.0
2018-Feb-20 08:30N 33°50' E 132°18'1012.3
2018-Feb-20 07:41N 33°47' E 132°07'212.7
2018-Feb-20 07:30N 33°46' E 132°04'812.9
2018-Feb-20 06:51N 33°46' E 131°54'514.2
2018-Feb-20 06:30N 33°48' E 131°49'714.2
2018-Feb-20 06:00N 33°49' E 131°40'714.2
2018-Feb-20 05:30N 33°50' E 131°32'713.9
2018-Feb-20 05:00N 33°51' E 131°24'713.9
2018-Feb-20 04:31N 33°52' E 131°15'713.5
2018-Feb-20 04:00N 33°56' E 131°08'612.7
2018-Feb-20 03:31N 33°58' E 131°01'5 9.4
2018-Feb-20 03:00N 33°56' E 130°56'3 5.9
2018-Feb-20 02:31N 33°56' E 130°53'611.6
2018-Feb-20 02:01N 34°01' E 130°52'713.8
2018-Feb-20 01:30N 34°08' E 130°50'713.9
2018-Feb-20 01:00N 34°15' E 130°49'713.6
2018-Feb-20 00:30N 34°22' E 130°49'  

Dump ship's entire track history